Terminal Aerodrome Forecast
Issued by NWS

Home | Current Version | Previous Version | Text Only | Print | Product List | Glossary On
Versions: 1 2 3 4 5 6 7 8 9 10 11 12 13 14
802
FTUS45 KTFX 200521
TAFBZN
TAF
KBZN 200521Z 2006/2106 19010KT P6SM SCT080 BKN140
     FM201200 17010KT P6SM SCT050 BKN080
     FM201800 23011KT P6SM VCSH SCT040 BKN070 PROB30 2022/2102
      -SHRASN=

USA.gov is the U.S. government's official web portal to all federal, state and local government web resources and services.